sensor_id;sensor_type;location;lat;lon;timestamp;P1;durP1;ratioP1;P2;durP2;ratioP2
48052;SDS011;33824;51.600;5.718;2023-03-08T00:01:46;10.80;;;5.57;;
48052;SDS011;33824;51.600;5.718;2023-03-08T00:04:12;15.13;;;5.95;;
48052;SDS011;33824;51.600;5.718;2023-03-08T00:06:38;14.25;;;5.47;;
48052;SDS011;33824;51.600;5.718;2023-03-08T00:09:03;9.40;;;5.63;;
48052;SDS011;33824;51.600;5.718;2023-03-08T00:11:29;13.63;;;6.45;;
48052;SDS011;33824;51.600;5.718;2023-03-08T00:13:54;10.68;;;6.00;;
48052;SDS011;33824;51.600;5.718;2023-03-08T00:16:21;13.32;;;6.50;;
48052;SDS011;33824;51.600;5.718;2023-03-08T00:18:47;11.35;;;5.88;;
48052;SDS011;33824;51.600;5.718;2023-03-08T00:21:14;12.63;;;7.47;;
48052;SDS011;33824;51.600;5.718;2023-03-08T00:23:43;12.32;;;6.40;;
48052;SDS011;33824;51.600;5.718;2023-03-08T00:26:09;13.38;;;5.60;;
48052;SDS011;33824;51.600;5.718;2023-03-08T00:28:36;16.17;;;7.35;;
48052;SDS011;33824;51.600;5.718;2023-03-08T00:31:04;16.55;;;6.28;;
48052;SDS011;33824;51.600;5.718;2023-03-08T00:33:31;9.35;;;5.95;;
48052;SDS011;33824;51.600;5.718;2023-03-08T00:35:58;11.38;;;5.90;;
48052;SDS011;33824;51.600;5.718;2023-03-08T00:38:27;11.40;;;6.35;;
48052;SDS011;33824;51.600;5.718;2023-03-08T00:40:54;15.38;;;6.78;;
48052;SDS011;33824;51.600;5.718;2023-03-08T00:43:20;15.70;;;7.28;;
48052;SDS011;33824;51.600;5.718;2023-03-08T00:45:46;12.63;;;6.13;;
48052;SDS011;33824;51.600;5.718;2023-03-08T00:48:11;11.95;;;6.82;;
48052;SDS011;33824;51.600;5.718;2023-03-08T00:50:41;11.15;;;6.30;;
48052;SDS011;33824;51.600;5.718;2023-03-08T00:53:06;11.70;;;6.55;;
48052;SDS011;33824;51.600;5.718;2023-03-08T00:55:32;12.23;;;6.10;;
48052;SDS011;33824;51.600;5.718;2023-03-08T00:57:58;12.70;;;6.68;;
48052;SDS011;33824;51.600;5.718;2023-03-08T01:00:24;16.45;;;7.28;;
48052;SDS011;33824;51.600;5.718;2023-03-08T01:02:50;13.30;;;6.65;;
48052;SDS011;33824;51.600;5.718;2023-03-08T01:05:15;14.32;;;7.15;;
48052;SDS011;33824;51.600;5.718;2023-03-08T01:07:41;17.85;;;8.40;;
48052;SDS011;33824;51.600;5.718;2023-03-08T01:10:07;14.10;;;7.40;;
48052;SDS011;33824;51.600;5.718;2023-03-08T01:12:33;15.25;;;7.50;;
48052;SDS011;33824;51.600;5.718;2023-03-08T01:15:00;16.42;;;7.75;;
48052;SDS011;33824;51.600;5.718;2023-03-08T01:17:27;14.20;;;7.13;;
48052;SDS011;33824;51.600;5.718;2023-03-08T01:19:53;20.92;;;7.97;;
48052;SDS011;33824;51.600;5.718;2023-03-08T01:22:18;13.63;;;7.38;;
48052;SDS011;33824;51.600;5.718;2023-03-08T01:24:44;16.75;;;7.28;;
48052;SDS011;33824;51.600;5.718;2023-03-08T01:27:11;17.55;;;7.50;;
48052;SDS011;33824;51.600;5.718;2023-03-08T01:29:36;17.33;;;7.07;;
48052;SDS011;33824;51.600;5.718;2023-03-08T01:32:02;18.13;;;8.52;;
48052;SDS011;33824;51.600;5.718;2023-03-08T01:34:27;14.95;;;7.65;;
48052;SDS011;33824;51.600;5.718;2023-03-08T01:36:53;19.40;;;8.25;;
48052;SDS011;33824;51.600;5.718;2023-03-08T01:39:18;16.55;;;9.32;;
48052;SDS011;33824;51.600;5.718;2023-03-08T01:41:44;19.35;;;9.55;;
48052;SDS011;33824;51.600;5.718;2023-03-08T01:44:13;19.67;;;8.73;;
48052;SDS011;33824;51.600;5.718;2023-03-08T01:46:40;16.33;;;8.65;;
48052;SDS011;33824;51.600;5.718;2023-03-08T01:54:32;18.23;;;9.43;;
48052;SDS011;33824;51.600;5.718;2023-03-08T01:57:08;18.60;;;9.95;;
48052;SDS011;33824;51.600;5.718;2023-03-08T01:59:39;19.40;;;9.43;;
48052;SDS011;33824;51.600;5.718;2023-03-08T02:02:06;20.38;;;9.95;;
48052;SDS011;33824;51.600;5.718;2023-03-08T02:04:32;21.52;;;10.25;;
48052;SDS011;33824;51.600;5.718;2023-03-08T02:06:58;20.63;;;10.20;;
48052;SDS011;33824;51.600;5.718;2023-03-08T02:09:24;18.75;;;9.60;;
48052;SDS011;33824;51.600;5.718;2023-03-08T02:11:49;25.83;;;10.80;;
48052;SDS011;33824;51.600;5.718;2023-03-08T02:14:16;18.23;;;9.13;;
48052;SDS011;33824;51.600;5.718;2023-03-08T02:16:42;18.55;;;9.80;;
48052;SDS011;33824;51.600;5.718;2023-03-08T02:19:42;20.30;;;9.55;;
48052;SDS011;33824;51.600;5.718;2023-03-08T02:22:09;22.38;;;10.82;;
48052;SDS011;33824;51.600;5.718;2023-03-08T02:24:36;21.08;;;11.05;;
48052;SDS011;33824;51.600;5.718;2023-03-08T02:27:06;26.13;;;11.10;;
48052;SDS011;33824;51.600;5.718;2023-03-08T02:29:35;20.58;;;10.10;;
48052;SDS011;33824;51.600;5.718;2023-03-08T02:32:01;23.23;;;11.27;;
48052;SDS011;33824;51.600;5.718;2023-03-08T02:34:26;18.58;;;9.98;;
48052;SDS011;33824;51.600;5.718;2023-03-08T02:36:52;22.80;;;10.57;;
48052;SDS011;33824;51.600;5.718;2023-03-08T02:39:17;26.92;;;11.93;;
48052;SDS011;33824;51.600;5.718;2023-03-08T02:41:43;50.47;;;19.92;;
48052;SDS011;33824;51.600;5.718;2023-03-08T02:44:09;29.35;;;13.57;;
48052;SDS011;33824;51.600;5.718;2023-03-08T02:46:34;20.42;;;10.55;;
48052;SDS011;33824;51.600;5.718;2023-03-08T02:49:00;22.48;;;10.25;;
48052;SDS011;33824;51.600;5.718;2023-03-08T02:51:25;19.88;;;10.38;;
48052;SDS011;33824;51.600;5.718;2023-03-08T02:53:51;19.50;;;10.68;;
48052;SDS011;33824;51.600;5.718;2023-03-08T02:56:17;24.15;;;11.68;;
48052;SDS011;33824;51.600;5.718;2023-03-08T02:58:43;23.25;;;11.95;;
48052;SDS011;33824;51.600;5.718;2023-03-08T03:01:11;21.50;;;10.93;;
48052;SDS011;33824;51.600;5.718;2023-03-08T03:03:37;25.05;;;11.65;;
48052;SDS011;33824;51.600;5.718;2023-03-08T03:06:03;25.80;;;11.63;;
48052;SDS011;33824;51.600;5.718;2023-03-08T03:08:29;24.55;;;11.73;;
48052;SDS011;33824;51.600;5.718;2023-03-08T03:10:55;22.70;;;11.38;;
48052;SDS011;33824;51.600;5.718;2023-03-08T03:13:21;25.52;;;11.23;;
48052;SDS011;33824;51.600;5.718;2023-03-08T03:15:46;22.73;;;11.77;;
48052;SDS011;33824;51.600;5.718;2023-03-08T03:18:12;20.60;;;11.35;;
48052;SDS011;33824;51.600;5.718;2023-03-08T03:20:37;21.85;;;11.45;;
48052;SDS011;33824;51.600;5.718;2023-03-08T03:23:03;20.83;;;11.77;;
48052;SDS011;33824;51.600;5.718;2023-03-08T03:25:28;22.63;;;11.60;;
48052;SDS011;33824;51.600;5.718;2023-03-08T03:27:55;20.88;;;10.50;;
48052;SDS011;33824;51.600;5.718;2023-03-08T03:30:20;27.15;;;12.05;;
48052;SDS011;33824;51.600;5.718;2023-03-08T03:32:46;23.65;;;12.05;;
48052;SDS011;33824;51.600;5.718;2023-03-08T03:35:12;29.92;;;13.38;;
48052;SDS011;33824;51.600;5.718;2023-03-08T03:37:38;27.65;;;11.50;;
48052;SDS011;33824;51.600;5.718;2023-03-08T03:40:03;25.75;;;12.32;;
48052;SDS011;33824;51.600;5.718;2023-03-08T03:42:30;27.20;;;13.52;;
48052;SDS011;33824;51.600;5.718;2023-03-08T03:44:55;30.17;;;13.40;;
48052;SDS011;33824;51.600;5.718;2023-03-08T03:47:21;26.40;;;13.57;;
48052;SDS011;33824;51.600;5.718;2023-03-08T03:49:46;27.27;;;12.73;;
48052;SDS011;33824;51.600;5.718;2023-03-08T03:52:12;26.08;;;12.52;;
48052;SDS011;33824;51.600;5.718;2023-03-08T03:54:38;29.48;;;14.05;;
48052;SDS011;33824;51.600;5.718;2023-03-08T03:57:03;22.23;;;12.63;;
48052;SDS011;33824;51.600;5.718;2023-03-08T03:59:29;28.98;;;13.40;;
48052;SDS011;33824;51.600;5.718;2023-03-08T04:01:55;26.75;;;13.27;;
48052;SDS011;33824;51.600;5.718;2023-03-08T04:04:20;22.02;;;11.90;;
48052;SDS011;33824;51.600;5.718;2023-03-08T04:06:46;24.42;;;12.60;;
48052;SDS011;33824;51.600;5.718;2023-03-08T04:09:12;24.23;;;12.30;;
48052;SDS011;33824;51.600;5.718;2023-03-08T04:11:40;23.88;;;11.48;;
48052;SDS011;33824;51.600;5.718;2023-03-08T04:14:06;22.05;;;9.95;;
48052;SDS011;33824;51.600;5.718;2023-03-08T04:16:33;24.40;;;11.90;;
48052;SDS011;33824;51.600;5.718;2023-03-08T04:19:03;22.40;;;11.23;;
48052;SDS011;33824;51.600;5.718;2023-03-08T04:21:36;20.58;;;10.98;;
48052;SDS011;33824;51.600;5.718;2023-03-08T04:24:01;24.83;;;11.93;;
48052;SDS011;33824;51.600;5.718;2023-03-08T04:26:27;28.10;;;12.32;;
48052;SDS011;33824;51.600;5.718;2023-03-08T04:28:53;22.15;;;11.45;;
48052;SDS011;33824;51.600;5.718;2023-03-08T04:31:22;21.77;;;10.88;;
48052;SDS011;33824;51.600;5.718;2023-03-08T04:33:53;22.42;;;12.05;;
48052;SDS011;33824;51.600;5.718;2023-03-08T04:36:20;20.63;;;10.75;;
48052;SDS011;33824;51.600;5.718;2023-03-08T04:38:46;23.50;;;11.20;;
48052;SDS011;33824;51.600;5.718;2023-03-08T04:41:12;21.52;;;11.27;;
48052;SDS011;33824;51.600;5.718;2023-03-08T04:43:45;23.27;;;12.32;;
48052;SDS011;33824;51.600;5.718;2023-03-08T04:46:11;22.23;;;11.68;;
48052;SDS011;33824;51.600;5.718;2023-03-08T04:48:37;25.92;;;12.48;;
48052;SDS011;33824;51.600;5.718;2023-03-08T04:51:04;22.88;;;11.63;;
48052;SDS011;33824;51.600;5.718;2023-03-08T04:53:31;25.10;;;11.73;;
48052;SDS011;33824;51.600;5.718;2023-03-08T04:55:58;22.63;;;11.43;;
48052;SDS011;33824;51.600;5.718;2023-03-08T04:58:24;26.85;;;12.00;;
48052;SDS011;33824;51.600;5.718;2023-03-08T05:00:51;24.27;;;12.50;;
48052;SDS011;33824;51.600;5.718;2023-03-08T05:03:16;27.00;;;12.73;;
48052;SDS011;33824;51.600;5.718;2023-03-08T05:05:43;24.52;;;11.98;;
48052;SDS011;33824;51.600;5.718;2023-03-08T05:08:10;22.35;;;11.23;;
48052;SDS011;33824;51.600;5.718;2023-03-08T05:10:36;22.80;;;11.93;;
48052;SDS011;33824;51.600;5.718;2023-03-08T05:13:01;21.70;;;11.63;;
48052;SDS011;33824;51.600;5.718;2023-03-08T05:15:27;24.80;;;11.02;;
48052;SDS011;33824;51.600;5.718;2023-03-08T05:17:52;24.90;;;11.50;;
48052;SDS011;33824;51.600;5.718;2023-03-08T05:20:18;21.95;;;11.18;;
48052;SDS011;33824;51.600;5.718;2023-03-08T05:22:44;20.75;;;10.20;;
48052;SDS011;33824;51.600;5.718;2023-03-08T05:25:10;24.67;;;10.98;;
48052;SDS011;33824;51.600;5.718;2023-03-08T05:27:35;20.15;;;10.38;;
48052;SDS011;33824;51.600;5.718;2023-03-08T05:30:04;22.02;;;10.32;;
48052;SDS011;33824;51.600;5.718;2023-03-08T05:32:30;20.88;;;10.18;;
48052;SDS011;33824;51.600;5.718;2023-03-08T05:34:56;21.52;;;11.13;;
48052;SDS011;33824;51.600;5.718;2023-03-08T05:37:21;21.70;;;10.85;;
48052;SDS011;33824;51.600;5.718;2023-03-08T05:39:50;19.52;;;9.95;;
48052;SDS011;33824;51.600;5.718;2023-03-08T05:42:17;19.20;;;10.07;;
48052;SDS011;33824;51.600;5.718;2023-03-08T05:44:44;22.17;;;10.95;;
48052;SDS011;33824;51.600;5.718;2023-03-08T05:47:10;20.10;;;10.80;;
48052;SDS011;33824;51.600;5.718;2023-03-08T05:49:35;20.60;;;9.95;;
48052;SDS011;33824;51.600;5.718;2023-03-08T05:52:01;21.02;;;10.52;;
48052;SDS011;33824;51.600;5.718;2023-03-08T05:54:26;24.63;;;10.52;;
48052;SDS011;33824;51.600;5.718;2023-03-08T05:56:52;20.42;;;10.48;;
48052;SDS011;33824;51.600;5.718;2023-03-08T05:59:17;20.42;;;10.45;;
48052;SDS011;33824;51.600;5.718;2023-03-08T06:01:43;26.88;;;10.60;;
48052;SDS011;33824;51.600;5.718;2023-03-08T06:04:09;23.73;;;11.10;;
48052;SDS011;33824;51.600;5.718;2023-03-08T06:06:34;21.52;;;10.35;;
48052;SDS011;33824;51.600;5.718;2023-03-08T06:09:00;23.98;;;11.38;;
48052;SDS011;33824;51.600;5.718;2023-03-08T06:11:27;23.10;;;10.43;;
48052;SDS011;33824;51.600;5.718;2023-03-08T06:13:53;19.35;;;10.38;;
48052;SDS011;33824;51.600;5.718;2023-03-08T06:16:19;22.80;;;11.10;;
48052;SDS011;33824;51.600;5.718;2023-03-08T06:18:44;21.25;;;11.13;;
48052;SDS011;33824;51.600;5.718;2023-03-08T06:21:11;19.92;;;10.00;;
48052;SDS011;33824;51.600;5.718;2023-03-08T06:23:42;17.95;;;8.75;;
48052;SDS011;33824;51.600;5.718;2023-03-08T06:26:09;19.92;;;9.48;;
48052;SDS011;33824;51.600;5.718;2023-03-08T06:28:36;15.05;;;7.68;;
48052;SDS011;33824;51.600;5.718;2023-03-08T06:31:04;15.40;;;8.27;;
48052;SDS011;33824;51.600;5.718;2023-03-08T06:33:31;21.70;;;9.57;;
48052;SDS011;33824;51.600;5.718;2023-03-08T06:36:05;18.55;;;8.60;;
48052;SDS011;33824;51.600;5.718;2023-03-08T06:38:31;16.50;;;6.72;;
48052;SDS011;33824;51.600;5.718;2023-03-08T06:40:59;12.52;;;6.50;;
48052;SDS011;33824;51.600;5.718;2023-03-08T06:43:25;14.18;;;7.55;;
48052;SDS011;33824;51.600;5.718;2023-03-08T06:45:51;13.30;;;5.75;;
48052;SDS011;33824;51.600;5.718;2023-03-08T06:48:17;11.45;;;5.65;;
48052;SDS011;33824;51.600;5.718;2023-03-08T06:50:42;11.95;;;5.88;;
48052;SDS011;33824;51.600;5.718;2023-03-08T06:53:08;10.20;;;5.70;;
48052;SDS011;33824;51.600;5.718;2023-03-08T06:55:35;10.90;;;5.57;;
48052;SDS011;33824;51.600;5.718;2023-03-08T06:58:01;11.98;;;6.00;;
48052;SDS011;33824;51.600;5.718;2023-03-08T07:00:27;13.48;;;5.90;;
48052;SDS011;33824;51.600;5.718;2023-03-08T07:02:52;11.05;;;5.40;;
48052;SDS011;33824;51.600;5.718;2023-03-08T07:05:18;11.88;;;6.22;;
48052;SDS011;33824;51.600;5.718;2023-03-08T07:07:44;11.48;;;4.93;;
48052;SDS011;33824;51.600;5.718;2023-03-08T07:10:11;12.43;;;6.13;;
48052;SDS011;33824;51.600;5.718;2023-03-08T07:12:41;8.63;;;4.07;;
48052;SDS011;33824;51.600;5.718;2023-03-08T07:15:11;15.80;;;4.05;;
48052;SDS011;33824;51.600;5.718;2023-03-08T07:17:39;10.13;;;4.60;;
48052;SDS011;33824;51.600;5.718;2023-03-08T07:20:06;10.45;;;4.72;;
48052;SDS011;33824;51.600;5.718;2023-03-08T07:22:32;11.57;;;5.20;;
48052;SDS011;33824;51.600;5.718;2023-03-08T07:24:58;12.10;;;4.38;;
48052;SDS011;33824;51.600;5.718;2023-03-08T07:27:24;12.10;;;5.28;;
48052;SDS011;33824;51.600;5.718;2023-03-08T07:29:49;14.43;;;5.57;;
48052;SDS011;33824;51.600;5.718;2023-03-08T07:32:15;9.05;;;4.85;;
48052;SDS011;33824;51.600;5.718;2023-03-08T07:34:41;10.15;;;5.63;;
48052;SDS011;33824;51.600;5.718;2023-03-08T07:37:11;11.77;;;5.10;;
48052;SDS011;33824;51.600;5.718;2023-03-08T07:39:37;9.43;;;5.25;;
48052;SDS011;33824;51.600;5.718;2023-03-08T07:42:03;9.50;;;4.80;;
48052;SDS011;33824;51.600;5.718;2023-03-08T07:44:29;11.07;;;5.93;;
48052;SDS011;33824;51.600;5.718;2023-03-08T07:46:54;10.07;;;5.47;;
48052;SDS011;33824;51.600;5.718;2023-03-08T07:49:20;8.90;;;5.00;;
48052;SDS011;33824;51.600;5.718;2023-03-08T07:51:47;11.40;;;4.65;;
48052;SDS011;33824;51.600;5.718;2023-03-08T07:54:13;8.15;;;4.63;;
48052;SDS011;33824;51.600;5.718;2023-03-08T07:56:38;11.68;;;5.68;;
48052;SDS011;33824;51.600;5.718;2023-03-08T07:59:04;10.70;;;6.32;;
48052;SDS011;33824;51.600;5.718;2023-03-08T08:01:29;14.55;;;8.18;;
48052;SDS011;33824;51.600;5.718;2023-03-08T08:03:57;13.43;;;7.40;;
48052;SDS011;33824;51.600;5.718;2023-03-08T08:06:23;14.80;;;7.32;;
48052;SDS011;33824;51.600;5.718;2023-03-08T08:08:49;15.38;;;7.68;;
48052;SDS011;33824;51.600;5.718;2023-03-08T08:11:16;12.88;;;6.55;;
48052;SDS011;33824;51.600;5.718;2023-03-08T08:13:43;11.48;;;5.00;;
48052;SDS011;33824;51.600;5.718;2023-03-08T08:16:11;6.90;;;4.05;;
48052;SDS011;33824;51.600;5.718;2023-03-08T08:18:38;7.72;;;4.50;;
48052;SDS011;33824;51.600;5.718;2023-03-08T08:21:05;8.10;;;4.90;;
48052;SDS011;33824;51.600;5.718;2023-03-08T08:23:32;7.10;;;4.30;;
48052;SDS011;33824;51.600;5.718;2023-03-08T08:26:09;7.35;;;4.30;;
48052;SDS011;33824;51.600;5.718;2023-03-08T08:28:38;7.57;;;3.80;;
48052;SDS011;33824;51.600;5.718;2023-03-08T08:31:06;7.90;;;3.90;;
48052;SDS011;33824;51.600;5.718;2023-03-08T08:33:34;6.45;;;3.75;;
48052;SDS011;33824;51.600;5.718;2023-03-08T08:36:01;5.88;;;3.75;;
48052;SDS011;33824;51.600;5.718;2023-03-08T08:38:31;6.28;;;3.65;;
48052;SDS011;33824;51.600;5.718;2023-03-08T08:40:58;5.55;;;3.38;;
48052;SDS011;33824;51.600;5.718;2023-03-08T08:43:24;4.93;;;3.15;;
48052;SDS011;33824;51.600;5.718;2023-03-08T08:45:52;8.82;;;3.47;;
48052;SDS011;33824;51.600;5.718;2023-03-08T08:48:19;6.32;;;2.42;;
48052;SDS011;33824;51.600;5.718;2023-03-08T08:50:44;7.93;;;2.10;;
48052;SDS011;33824;51.600;5.718;2023-03-08T08:53:10;7.53;;;2.28;;
48052;SDS011;33824;51.600;5.718;2023-03-08T08:55:36;2.95;;;1.98;;
48052;SDS011;33824;51.600;5.718;2023-03-08T08:58:02;5.25;;;2.60;;
48052;SDS011;33824;51.600;5.718;2023-03-08T09:00:29;3.45;;;1.90;;
48052;SDS011;33824;51.600;5.718;2023-03-08T09:02:57;6.55;;;2.40;;
48052;SDS011;33824;51.600;5.718;2023-03-08T09:05:22;4.35;;;2.78;;
48052;SDS011;33824;51.600;5.718;2023-03-08T09:07:48;7.57;;;3.28;;
48052;SDS011;33824;51.600;5.718;2023-03-08T09:10:14;6.88;;;3.35;;
48052;SDS011;33824;51.600;5.718;2023-03-08T09:12:39;5.30;;;2.75;;
48052;SDS011;33824;51.600;5.718;2023-03-08T09:15:07;6.57;;;3.38;;
48052;SDS011;33824;51.600;5.718;2023-03-08T09:17:34;5.35;;;3.05;;
48052;SDS011;33824;51.600;5.718;2023-03-08T09:20:00;7.90;;;3.90;;
48052;SDS011;33824;51.600;5.718;2023-03-08T09:22:25;6.70;;;4.18;;
48052;SDS011;33824;51.600;5.718;2023-03-08T09:24:51;7.75;;;4.65;;
48052;SDS011;33824;51.600;5.718;2023-03-08T09:27:16;7.57;;;5.32;;
48052;SDS011;33824;51.600;5.718;2023-03-08T09:29:42;11.00;;;6.07;;
48052;SDS011;33824;51.600;5.718;2023-03-08T09:32:08;11.98;;;6.47;;
48052;SDS011;33824;51.600;5.718;2023-03-08T09:34:34;10.65;;;6.97;;
48052;SDS011;33824;51.600;5.718;2023-03-08T09:36:59;11.13;;;6.05;;
48052;SDS011;33824;51.600;5.718;2023-03-08T09:39:25;10.68;;;5.75;;
48052;SDS011;33824;51.600;5.718;2023-03-08T09:44:29;10.20;;;6.25;;
48052;SDS011;33824;51.600;5.718;2023-03-08T09:55:51;15.63;;;8.68;;
48052;SDS011;33824;51.600;5.718;2023-03-08T09:58:29;15.38;;;9.18;;
48052;SDS011;33824;51.600;5.718;2023-03-08T10:01:00;15.27;;;8.38;;
48052;SDS011;33824;51.600;5.718;2023-03-08T10:03:52;17.88;;;9.70;;
48052;SDS011;33824;51.600;5.718;2023-03-08T10:14:57;16.65;;;8.73;;
48052;SDS011;33824;51.600;5.718;2023-03-08T10:17:36;16.73;;;8.85;;
48052;SDS011;33824;51.600;5.718;2023-03-08T10:22:42;17.60;;;8.93;;
48052;SDS011;33824;51.600;5.718;2023-03-08T10:27:56;15.75;;;8.38;;
48052;SDS011;33824;51.600;5.718;2023-03-08T10:30:26;14.23;;;8.02;;
48052;SDS011;33824;51.600;5.718;2023-03-08T10:32:57;11.07;;;7.30;;
48052;SDS011;33824;51.600;5.718;2023-03-08T10:35:32;15.15;;;7.63;;
48052;SDS011;33824;51.600;5.718;2023-03-08T10:37:58;11.95;;;7.32;;
48052;SDS011;33824;51.600;5.718;2023-03-08T10:40:23;17.08;;;8.02;;
48052;SDS011;33824;51.600;5.718;2023-03-08T10:42:54;15.90;;;8.55;;
48052;SDS011;33824;51.600;5.718;2023-03-08T10:45:25;14.27;;;8.18;;
48052;SDS011;33824;51.600;5.718;2023-03-08T10:48:00;15.57;;;7.95;;
48052;SDS011;33824;51.600;5.718;2023-03-08T10:50:28;12.15;;;7.20;;
48052;SDS011;33824;51.600;5.718;2023-03-08T10:53:18;10.75;;;6.97;;
48052;SDS011;33824;51.600;5.718;2023-03-08T10:55:45;10.25;;;6.40;;
48052;SDS011;33824;51.600;5.718;2023-03-08T11:00:59;12.90;;;6.88;;
48052;SDS011;33824;51.600;5.718;2023-03-08T11:03:27;9.38;;;5.82;;
48052;SDS011;33824;51.600;5.718;2023-03-08T11:05:54;9.05;;;6.03;;
48052;SDS011;33824;51.600;5.718;2023-03-08T11:13:41;7.45;;;4.72;;
48052;SDS011;33824;51.600;5.718;2023-03-08T11:27:23;9.30;;;4.50;;
48052;SDS011;33824;51.600;5.718;2023-03-08T11:38:21;5.38;;;3.53;;
48052;SDS011;33824;51.600;5.718;2023-03-08T11:43:46;5.85;;;3.70;;
48052;SDS011;33824;51.600;5.718;2023-03-08T11:46:52;9.95;;;5.07;;
48052;SDS011;33824;51.600;5.718;2023-03-08T11:52:21;5.55;;;3.38;;
48052;SDS011;33824;51.600;5.718;2023-03-08T11:58:17;7.05;;;3.50;;
48052;SDS011;33824;51.600;5.718;2023-03-08T12:00:48;5.85;;;3.72;;
48052;SDS011;33824;51.600;5.718;2023-03-08T12:03:24;6.95;;;3.85;;
48052;SDS011;33824;51.600;5.718;2023-03-08T12:05:58;5.70;;;3.85;;
48052;SDS011;33824;51.600;5.718;2023-03-08T12:11:00;6.72;;;3.33;;
48052;SDS011;33824;51.600;5.718;2023-03-08T12:13:33;5.45;;;3.15;;
48052;SDS011;33824;51.600;5.718;2023-03-08T12:24:48;5.03;;;3.08;;
48052;SDS011;33824;51.600;5.718;2023-03-08T12:30:23;4.22;;;2.90;;
48052;SDS011;33824;51.600;5.718;2023-03-08T12:32:56;5.40;;;3.33;;
48052;SDS011;33824;51.600;5.718;2023-03-08T12:35:26;4.97;;;2.83;;
48052;SDS011;33824;51.600;5.718;2023-03-08T12:37:56;4.75;;;2.80;;
48052;SDS011;33824;51.600;5.718;2023-03-08T12:40:51;5.80;;;3.10;;
48052;SDS011;33824;51.600;5.718;2023-03-08T12:46:06;4.82;;;2.60;;
48052;SDS011;33824;51.600;5.718;2023-03-08T12:56:23;5.20;;;3.30;;
48052;SDS011;33824;51.600;5.718;2023-03-08T12:59:01;4.13;;;2.78;;
48052;SDS011;33824;51.600;5.718;2023-03-08T13:04:29;4.50;;;3.03;;
48052;SDS011;33824;51.600;5.718;2023-03-08T13:09:32;4.80;;;3.00;;
48052;SDS011;33824;51.600;5.718;2023-03-08T13:14:43;5.32;;;3.00;;
48052;SDS011;33824;51.600;5.718;2023-03-08T13:20:45;4.80;;;3.25;;
48052;SDS011;33824;51.600;5.718;2023-03-08T13:23:07;5.90;;;3.45;;
48052;SDS011;33824;51.600;5.718;2023-03-08T13:26:05;4.32;;;3.00;;
48052;SDS011;33824;51.600;5.718;2023-03-08T13:29:04;5.70;;;3.25;;
48052;SDS011;33824;51.600;5.718;2023-03-08T13:31:36;3.95;;;2.60;;
48052;SDS011;33824;51.600;5.718;2023-03-08T13:34:04;4.57;;;3.20;;
48052;SDS011;33824;51.600;5.718;2023-03-08T13:36:48;7.65;;;3.22;;
48052;SDS011;33824;51.600;5.718;2023-03-08T13:39:18;4.47;;;3.33;;
48052;SDS011;33824;51.600;5.718;2023-03-08T13:41:46;3.95;;;2.65;;
48052;SDS011;33824;51.600;5.718;2023-03-08T13:44:16;3.78;;;2.72;;
48052;SDS011;33824;51.600;5.718;2023-03-08T13:46:45;6.57;;;3.20;;
48052;SDS011;33824;51.600;5.718;2023-03-08T13:49:30;4.40;;;3.08;;
48052;SDS011;33824;51.600;5.718;2023-03-08T13:52:00;3.63;;;2.80;;
48052;SDS011;33824;51.600;5.718;2023-03-08T13:54:35;5.53;;;3.17;;
48052;SDS011;33824;51.600;5.718;2023-03-08T13:57:03;3.05;;;2.58;;
48052;SDS011;33824;51.600;5.718;2023-03-08T13:59:30;3.78;;;2.75;;
48052;SDS011;33824;51.600;5.718;2023-03-08T14:01:57;4.97;;;2.92;;
48052;SDS011;33824;51.600;5.718;2023-03-08T14:04:24;3.58;;;2.63;;
48052;SDS011;33824;51.600;5.718;2023-03-08T14:06:55;5.47;;;2.58;;
48052;SDS011;33824;51.600;5.718;2023-03-08T14:09:23;2.77;;;2.37;;
48052;SDS011;33824;51.600;5.718;2023-03-08T14:11:54;4.05;;;2.67;;
48052;SDS011;33824;51.600;5.718;2023-03-08T14:14:35;4.63;;;2.42;;
48052;SDS011;33824;51.600;5.718;2023-03-08T14:17:04;2.88;;;2.42;;
48052;SDS011;33824;51.600;5.718;2023-03-08T14:19:32;3.50;;;2.78;;
48052;SDS011;33824;51.600;5.718;2023-03-08T14:22:01;5.53;;;2.88;;
48052;SDS011;33824;51.600;5.718;2023-03-08T14:24:29;3.55;;;2.97;;
48052;SDS011;33824;51.600;5.718;2023-03-08T14:29:29;3.90;;;2.60;;
48052;SDS011;33824;51.600;5.718;2023-03-08T14:36:58;5.20;;;2.50;;
48052;SDS011;33824;51.600;5.718;2023-03-08T14:39:27;5.80;;;2.72;;
48052;SDS011;33824;51.600;5.718;2023-03-08T14:41:54;4.45;;;2.90;;
48052;SDS011;33824;51.600;5.718;2023-03-08T14:44:27;6.53;;;3.08;;
48052;SDS011;33824;51.600;5.718;2023-03-08T14:46:53;5.03;;;3.00;;
48052;SDS011;33824;51.600;5.718;2023-03-08T14:49:26;5.43;;;3.00;;
48052;SDS011;33824;51.600;5.718;2023-03-08T14:51:53;5.00;;;3.10;;
48052;SDS011;33824;51.600;5.718;2023-03-08T14:54:21;4.60;;;2.70;;
48052;SDS011;33824;51.600;5.718;2023-03-08T14:56:55;5.00;;;3.30;;
48052;SDS011;33824;51.600;5.718;2023-03-08T14:59:21;5.10;;;2.22;;
48052;SDS011;33824;51.600;5.718;2023-03-08T15:01:47;3.78;;;2.55;;
48052;SDS011;33824;51.600;5.718;2023-03-08T15:04:17;5.22;;;3.13;;
48052;SDS011;33824;51.600;5.718;2023-03-08T15:06:44;3.38;;;2.65;;
48052;SDS011;33824;51.600;5.718;2023-03-08T15:09:12;5.05;;;3.13;;
48052;SDS011;33824;51.600;5.718;2023-03-08T15:11:40;5.72;;;2.90;;
48052;SDS011;33824;51.600;5.718;2023-03-08T15:14:08;4.28;;;3.08;;
48052;SDS011;33824;51.600;5.718;2023-03-08T15:16:36;5.55;;;3.05;;
48052;SDS011;33824;51.600;5.718;2023-03-08T15:19:01;4.03;;;2.90;;
48052;SDS011;33824;51.600;5.718;2023-03-08T15:21:27;3.67;;;2.70;;
48052;SDS011;33824;51.600;5.718;2023-03-08T15:23:53;4.15;;;2.92;;
48052;SDS011;33824;51.600;5.718;2023-03-08T15:26:23;4.55;;;3.08;;
48052;SDS011;33824;51.600;5.718;2023-03-08T15:28:51;4.70;;;3.10;;
48052;SDS011;33824;51.600;5.718;2023-03-08T15:31:16;5.30;;;3.17;;
48052;SDS011;33824;51.600;5.718;2023-03-08T15:33:42;4.10;;;2.92;;
48052;SDS011;33824;51.600;5.718;2023-03-08T15:36:10;3.53;;;2.70;;
48052;SDS011;33824;51.600;5.718;2023-03-08T15:38:39;4.28;;;2.80;;
48052;SDS011;33824;51.600;5.718;2023-03-08T15:41:04;4.13;;;2.88;;
48052;SDS011;33824;51.600;5.718;2023-03-08T15:43:30;4.43;;;2.90;;
48052;SDS011;33824;51.600;5.718;2023-03-08T15:45:57;4.40;;;3.20;;
48052;SDS011;33824;51.600;5.718;2023-03-08T15:48:23;4.50;;;2.83;;
48052;SDS011;33824;51.600;5.718;2023-03-08T15:50:49;6.05;;;2.65;;
48052;SDS011;33824;51.600;5.718;2023-03-08T15:53:14;8.02;;;3.17;;
48052;SDS011;33824;51.600;5.718;2023-03-08T15:55:40;4.70;;;3.40;;
48052;SDS011;33824;51.600;5.718;2023-03-08T15:58:06;4.65;;;2.65;;
48052;SDS011;33824;51.600;5.718;2023-03-08T16:00:31;7.38;;;3.80;;
48052;SDS011;33824;51.600;5.718;2023-03-08T16:03:00;5.43;;;2.70;;
48052;SDS011;33824;51.600;5.718;2023-03-08T16:05:25;4.57;;;2.50;;
48052;SDS011;33824;51.600;5.718;2023-03-08T16:07:53;4.72;;;2.78;;
48052;SDS011;33824;51.600;5.718;2023-03-08T16:10:20;4.20;;;2.60;;
48052;SDS011;33824;51.600;5.718;2023-03-08T16:12:46;3.72;;;3.05;;
48052;SDS011;33824;51.600;5.718;2023-03-08T16:15:13;5.93;;;2.53;;
48052;SDS011;33824;51.600;5.718;2023-03-08T16:17:39;4.53;;;2.38;;
48052;SDS011;33824;51.600;5.718;2023-03-08T16:20:04;4.30;;;2.53;;
48052;SDS011;33824;51.600;5.718;2023-03-08T16:22:31;4.15;;;2.20;;
48052;SDS011;33824;51.600;5.718;2023-03-08T16:24:57;3.33;;;2.25;;
48052;SDS011;33824;51.600;5.718;2023-03-08T16:27:23;5.05;;;2.35;;
48052;SDS011;33824;51.600;5.718;2023-03-08T16:29:49;3.22;;;2.50;;
48052;SDS011;33824;51.600;5.718;2023-03-08T16:32:16;7.47;;;2.75;;